Time;durP1;ratioP1;P1;durP2;ratioP2;P2;SDS_P1;SDS_P2;PMS_P1;PMS_P2;Temp;Humidity;BMP_temperature;BMP_pressure;BME280_temperature;BME280_humidity;BME280_pressure;Samples;Min_cycle;Max_cycle;Signal;HPM_P1;HPM_P2
2021/05/22 00:02:22;;;;;;;;;;;10.80;54.10;;;;;;5039706;28;19917;-81
2021/05/22 00:04:48;;;;;;;;;;;10.80;54.20;;;;;;5040359;28;19920;-81
2021/05/22 00:07:13;;;;;;;;;;;10.80;54.30;;;;;;5038417;28;19944;-80
2021/05/22 00:09:39;;;;;;;;;;;10.80;54.30;;;;;;5020626;28;19924;-81
2021/05/22 00:12:07;;;;;;;;;;;10.70;54.20;;;;;;5039156;28;19913;-81
2021/05/22 00:14:33;;;;;;;;;;;10.70;54.30;;;;;;5039679;28;19945;-81
2021/05/22 00:16:58;;;;;;;;;;;10.70;54.30;;;;;;5022524;28;19924;-81
2021/05/22 00:19:24;;;;;;;;;;;10.70;54.30;;;;;;5035663;28;19920;-81
2021/05/22 00:21:49;;;;;;;;;;;10.60;54.20;;;;;;5021309;28;19988;-81
2021/05/22 00:24:15;;;;;;;;;;;10.60;54.20;;;;;;5020410;28;19917;-81
2021/05/22 00:26:40;;;;;;;;;;;10.60;54.30;;;;;;5038436;28;19913;-81
2021/05/22 00:29:06;;;;;;;;;;;10.60;54.30;;;;;;5038843;28;20289;-81
2021/05/22 00:31:32;;;;;;;;;;;10.50;54.30;;;;;;5021523;28;19913;-81
2021/05/22 00:33:58;;;;;;;;;;;10.50;54.40;;;;;;5039354;28;19975;-81
2021/05/22 00:36:26;;;;;;;;;;;10.50;54.40;;;;;;5021326;28;19913;-80
2021/05/22 00:38:52;;;;;;;;;;;10.50;54.40;;;;;;5039566;28;19913;-81
2021/05/22 00:41:17;;;;;;;;;;;10.40;54.40;;;;;;5040460;28;19999;-81
2021/05/22 00:43:43;;;;;;;;;;;10.40;54.40;;;;;;5038938;28;19920;-80
2021/05/22 00:46:09;;;;;;;;;;;10.40;54.40;;;;;;5016755;28;19921;-81
2021/05/22 00:48:34;;;;;;;;;;;10.40;54.50;;;;;;5017975;28;20369;-81
2021/05/22 00:51:00;;;;;;;;;;;10.30;54.40;;;;;;5037902;28;19917;-81
2021/05/22 00:53:26;;;;;;;;;;;10.30;54.50;;;;;;5020715;28;19940;-81
2021/05/22 00:55:51;;;;;;;;;;;10.30;54.60;;;;;;5037552;28;20340;-81
2021/05/22 00:58:17;;;;;;;;;;;10.30;54.70;;;;;;5033478;28;19913;-81
2021/05/22 01:00:42;;;;;;;;;;;10.20;54.80;;;;;;5021698;28;20309;-81
2021/05/22 01:03:10;;;;;;;;;;;10.20;54.90;;;;;;5037600;28;20396;-81
2021/05/22 01:05:40;;;;;;;;;;;10.20;55.00;;;;;;5039631;28;20330;-81
2021/05/22 01:08:12;;;;;;;;;;;10.20;55.10;;;;;;5038250;28;19967;-81
2021/05/22 01:10:37;;;;;;;;;;;10.20;55.10;;;;;;5039428;28;19909;-81
2021/05/22 01:13:03;;;;;;;;;;;10.10;55.10;;;;;;5021252;28;19959;-81
2021/05/22 01:15:28;;;;;;;;;;;10.10;55.20;;;;;;5017213;28;19917;-81
2021/05/22 01:17:54;;;;;;;;;;;10.10;55.30;;;;;;5034299;28;19913;-81
2021/05/22 01:20:34;;;;;;;;;;;10.10;55.40;;;;;;5038063;28;19909;-81
2021/05/22 01:23:21;;;;;;;;;;;10.10;55.60;;;;;;5035625;28;19913;-81
2021/05/22 01:25:47;;;;;;;;;;;10.10;55.70;;;;;;5052472;23;19928;-82
2021/05/22 01:28:13;;;;;;;;;;;10.10;55.80;;;;;;5038024;28;19932;-82
2021/05/22 01:30:39;;;;;;;;;;;10.10;55.90;;;;;;5024054;28;20301;-82
2021/05/22 01:33:05;;;;;;;;;;;10.10;56.10;;;;;;5029279;28;19935;-82
2021/05/22 01:35:31;;;;;;;;;;;10.10;56.30;;;;;;5042795;28;20400;-81
2021/05/22 01:37:57;;;;;;;;;;;10.10;56.40;;;;;;5039263;28;19946;-81
2021/05/22 01:40:23;;;;;;;;;;;10.10;57.20;;;;;;5021021;28;19917;-81
2021/05/22 01:42:48;;;;;;;;;;;10.10;56.80;;;;;;5040186;28;19993;-82
2021/05/22 01:45:27;;;;;;;;;;;10.10;56.90;;;;;;5039754;28;19936;-82
2021/05/22 01:47:54;;;;;;;;;;;10.10;56.90;;;;;;5057328;28;20368;-83
2021/05/22 01:50:20;;;;;;;;;;;10.10;57.10;;;;;;5046941;28;19913;-82
2021/05/22 01:52:47;;;;;;;;;;;10.10;57.20;;;;;;5024568;28;20373;-82
2021/05/22 01:55:13;;;;;;;;;;;10.10;57.30;;;;;;5028144;28;20408;-82
2021/05/22 01:57:39;;;;;;;;;;;10.10;57.40;;;;;;5030910;28;19913;-81
2021/05/22 02:00:06;;;;;;;;;;;10.00;57.40;;;;;;5016783;28;19964;-82
2021/05/22 02:02:32;;;;;;;;;;;10.00;57.50;;;;;;5051825;28;20408;-82
2021/05/22 02:05:02;;;;;;;;;;;10.00;57.50;;;;;;5047264;28;19920;-82
2021/05/22 02:07:28;;;;;;;;;;;10.00;57.60;;;;;;5052731;28;19913;-81
2021/05/22 02:09:55;;;;;;;;;;;10.00;57.70;;;;;;5021597;28;19971;-82
2021/05/22 02:12:23;;;;;;;;;;;10.00;57.70;;;;;;5052878;28;19913;-82
2021/05/22 02:14:50;;;;;;;;;;;10.00;57.80;;;;;;5024960;28;19917;-82
2021/05/22 02:17:18;;;;;;;;;;;10.00;57.90;;;;;;5029347;28;19919;-82
2021/05/22 02:19:45;;;;;;;;;;;10.00;58.00;;;;;;5041755;28;20039;-81
2021/05/22 02:22:11;;;;;;;;;;;10.00;58.10;;;;;;5041631;28;19913;-82
2021/05/22 02:24:37;;;;;;;;;;;10.00;58.30;;;;;;5022685;28;19913;-82
2021/05/22 02:27:03;;;;;;;;;;;10.00;58.40;;;;;;5036414;28;19980;-81
2021/05/22 02:29:29;;;;;;;;;;;10.00;58.50;;;;;;5038601;28;19914;-82
2021/05/22 02:31:57;;;;;;;;;;;10.00;58.70;;;;;;5039684;28;19920;-83
2021/05/22 02:34:27;;;;;;;;;;;10.00;58.90;;;;;;5055600;28;19917;-83
2021/05/22 02:36:54;;;;;;;;;;;10.00;59.00;;;;;;5024281;28;19913;-82
2021/05/22 02:39:20;;;;;;;;;;;10.00;59.20;;;;;;5036192;28;19913;-82
2021/05/22 02:41:46;;;;;;;;;;;10.00;59.40;;;;;;5041627;28;20024;-82
2021/05/22 02:44:13;;;;;;;;;;;10.00;59.50;;;;;;5043584;28;19980;-82
2021/05/22 02:46:41;;;;;;;;;;;10.00;59.60;;;;;;5048424;28;20007;-82
2021/05/22 02:49:08;;;;;;;;;;;10.00;59.80;;;;;;5058045;28;19915;-81
2021/05/22 02:51:34;;;;;;;;;;;10.00;60.00;;;;;;5057336;28;20308;-82
2021/05/22 02:54:00;;;;;;;;;;;10.00;60.10;;;;;;5055928;28;19971;-82
2021/05/22 02:56:26;;;;;;;;;;;10.00;60.20;;;;;;5041791;28;19913;-82
2021/05/22 02:58:53;;;;;;;;;;;10.00;60.40;;;;;;5020959;28;19951;-82
2021/05/22 03:01:19;;;;;;;;;;;10.00;60.60;;;;;;5049470;28;20300;-82
2021/05/22 03:03:45;;;;;;;;;;;10.00;60.80;;;;;;5045962;28;19917;-82
2021/05/22 03:06:10;;;;;;;;;;;9.90;62.00;;;;;;5039524;28;19913;-82
2021/05/22 03:08:43;;;;;;;;;;;9.90;63.10;;;;;;5025107;28;19917;-82
2021/05/22 03:11:09;;;;;;;;;;;9.90;62.50;;;;;;5045581;28;19917;-81
2021/05/22 03:13:35;;;;;;;;;;;9.90;62.80;;;;;;5040347;28;19920;-82
2021/05/22 03:16:00;;;;;;;;;;;9.90;63.10;;;;;;5042086;28;20019;-82
2021/05/22 03:18:25;;;;;;;;;;;10.00;62.20;;;;;;5051139;28;19913;-82
2021/05/22 03:20:51;;;;;;;;;;;10.00;62.40;;;;;;5048081;28;20429;-82
2021/05/22 03:23:16;;;;;;;;;;;10.00;62.60;;;;;;5059789;28;19915;-82
2021/05/22 03:25:42;;;;;;;;;;;10.10;63.00;;;;;;5046396;28;19913;-82
2021/05/22 03:28:07;;;;;;;;;;;10.10;63.00;;;;;;5032098;28;19920;-82
2021/05/22 03:30:33;;;;;;;;;;;10.20;63.30;;;;;;5046265;28;20008;-82
2021/05/22 03:32:59;;;;;;;;;;;10.20;63.50;;;;;;5028263;28;20369;-82
2021/05/22 03:35:24;;;;;;;;;;;10.30;63.80;;;;;;5048679;28;20062;-82
2021/05/22 03:37:51;;;;;;;;;;;10.30;63.90;;;;;;5043148;28;20300;-82
2021/05/22 03:40:17;;;;;;;;;;;10.30;64.10;;;;;;5040285;28;20003;-82
2021/05/22 03:42:42;;;;;;;;;;;10.30;64.20;;;;;;5047360;28;19952;-82
2021/05/22 03:45:08;;;;;;;;;;;10.40;64.60;;;;;;5029672;28;19926;-82
2021/05/22 03:47:33;;;;;;;;;;;10.40;64.80;;;;;;5054784;28;19935;-82
2021/05/22 03:49:59;;;;;;;;;;;10.40;65.10;;;;;;5034820;28;19919;-83
2021/05/22 03:52:24;;;;;;;;;;;10.50;65.50;;;;;;5050889;28;19920;-82
2021/05/22 03:54:50;;;;;;;;;;;10.50;65.70;;;;;;5037946;28;19913;-82
2021/05/22 03:57:15;;;;;;;;;;;10.50;65.80;;;;;;5039097;28;19920;-82
2021/05/22 03:59:41;;;;;;;;;;;10.60;66.10;;;;;;5048595;28;20004;-81
2021/05/22 04:02:06;;;;;;;;;;;10.60;66.40;;;;;;5032432;28;19967;-82
2021/05/22 04:04:32;;;;;;;;;;;10.60;66.90;;;;;;5045185;28;19944;-82
2021/05/22 04:06:57;;;;;;;;;;;10.60;67.20;;;;;;5043869;28;19917;-82
2021/05/22 04:09:23;;;;;;;;;;;10.70;67.70;;;;;;5053095;28;19984;-82
2021/05/22 04:11:48;;;;;;;;;;;10.70;68.10;;;;;;5057611;28;19993;-82
2021/05/22 04:14:16;;;;;;;;;;;10.70;68.50;;;;;;5059621;28;19932;-82
2021/05/22 04:16:42;;;;;;;;;;;10.70;68.90;;;;;;5039970;28;19928;-81
2021/05/22 04:19:07;;;;;;;;;;;10.80;69.40;;;;;;5031527;28;19918;-82
2021/05/22 04:21:33;;;;;;;;;;;10.80;69.70;;;;;;5021554;28;19914;-82
2021/05/22 04:23:58;;;;;;;;;;;10.80;70.10;;;;;;5048619;28;19966;-82
2021/05/22 04:26:23;;;;;;;;;;;10.90;70.70;;;;;;5049270;28;19917;-82
2021/05/22 04:28:49;;;;;;;;;;;10.90;71.10;;;;;;5018584;28;19913;-82
2021/05/22 04:31:14;;;;;;;;;;;10.90;71.50;;;;;;5061124;28;19913;-82
2021/05/22 04:33:40;;;;;;;;;;;10.80;71.90;;;;;;5046683;28;19962;-82
2021/05/22 04:36:06;;;;;;;;;;;10.90;72.50;;;;;;5042968;28;20365;-82
2021/05/22 04:38:31;;;;;;;;;;;10.90;73.00;;;;;;5027718;28;20378;-82
2021/05/22 04:40:57;;;;;;;;;;;10.90;73.50;;;;;;5053966;28;19913;-82
2021/05/22 04:43:22;;;;;;;;;;;11.00;74.10;;;;;;5049309;28;19920;-83
2021/05/22 04:45:48;;;;;;;;;;;11.00;74.40;;;;;;5042086;28;19919;-84
2021/05/22 04:48:13;;;;;;;;;;;11.10;74.90;;;;;;5037272;28;19914;-81
2021/05/22 04:50:39;;;;;;;;;;;11.20;75.40;;;;;;5048702;28;19919;-82
2021/05/22 04:53:04;;;;;;;;;;;11.30;75.70;;;;;;5044068;28;19944;-82
2021/05/22 04:55:30;;;;;;;;;;;11.40;75.80;;;;;;5057608;28;20917;-82
2021/05/22 04:57:55;;;;;;;;;;;11.50;76.00;;;;;;5061797;28;19909;-82
2021/05/22 05:00:21;;;;;;;;;;;11.60;76.30;;;;;;5042763;28;19913;-82
2021/05/22 05:02:47;;;;;;;;;;;11.70;76.70;;;;;;5043833;28;20067;-82
2021/05/22 05:05:12;;;;;;;;;;;11.70;77.00;;;;;;5043663;28;24064;-82
2021/05/22 05:07:41;;;;;;;;;;;11.80;77.40;;;;;;5023067;28;20344;-82
2021/05/22 05:10:07;;;;;;;;;;;11.90;77.70;;;;;;5054226;28;19912;-82
2021/05/22 05:12:33;;;;;;;;;;;12.10;77.80;;;;;;5043076;28;20028;-82
2021/05/22 05:14:58;;;;;;;;;;;12.40;77.80;;;;;;5058915;28;20292;-82
2021/05/22 05:17:24;;;;;;;;;;;12.50;77.50;;;;;;5042145;28;19913;-82
2021/05/22 05:19:49;;;;;;;;;;;12.70;77.60;;;;;;5047425;28;19976;-82
2021/05/22 05:22:15;;;;;;;;;;;12.80;77.90;;;;;;5036177;28;19919;-82
2021/05/22 05:24:40;;;;;;;;;;;12.80;78.10;;;;;;5048113;28;20012;-83
2021/05/22 05:27:06;;;;;;;;;;;12.70;78.70;;;;;;5043545;28;19980;-82
2021/05/22 05:29:31;;;;;;;;;;;12.80;79.40;;;;;;5040667;28;19975;-84
2021/05/22 05:31:57;;;;;;;;;;;12.80;79.80;;;;;;5029309;28;19917;-83
2021/05/22 05:34:22;;;;;;;;;;;12.80;80.20;;;;;;5052145;28;19913;-83
2021/05/22 05:36:48;;;;;;;;;;;12.80;80.80;;;;;;5054822;28;20011;-83
2021/05/22 05:39:15;;;;;;;;;;;12.70;81.50;;;;;;5043208;28;19916;-84
2021/05/22 05:41:40;;;;;;;;;;;12.70;82.40;;;;;;5034591;28;19968;-84
2021/05/22 05:44:06;;;;;;;;;;;12.60;83.20;;;;;;5046880;28;20404;-83
2021/05/22 05:46:31;;;;;;;;;;;12.60;84.00;;;;;;5054528;28;19964;-83
2021/05/22 05:48:57;;;;;;;;;;;12.60;85.00;;;;;;5050526;28;19921;-83
2021/05/22 05:51:22;;;;;;;;;;;12.60;85.60;;;;;;5057289;28;19913;-82
2021/05/22 05:53:48;;;;;;;;;;;12.50;86.00;;;;;;5049847;28;20403;-83
2021/05/22 05:56:13;;;;;;;;;;;12.50;86.50;;;;;;5040193;28;19916;-83
2021/05/22 05:58:39;;;;;;;;;;;12.50;87.90;;;;;;5031227;28;20012;-83
2021/05/22 06:01:07;;;;;;;;;;;12.40;87.90;;;;;;5058084;28;19913;-83
2021/05/22 06:03:33;;;;;;;;;;;12.30;88.70;;;;;;5042324;28;19959;-83
2021/05/22 06:05:58;;;;;;;;;;;12.30;89.60;;;;;;5055459;28;19913;-84
2021/05/22 06:08:24;;;;;;;;;;;12.30;90.10;;;;;;5051485;28;19935;-84
2021/05/22 06:10:51;;;;;;;;;;;12.40;90.50;;;;;;5049331;28;20003;-83
2021/05/22 06:13:26;;;;;;;;;;;12.40;90.60;;;;;;5043381;28;20388;-83
2021/05/22 06:16:00;;;;;;;;;;;12.40;90.90;;;;;;5036709;28;20008;-85
2021/05/22 06:18:30;;;;;;;;;;;12.40;91.10;;;;;;5041690;28;19921;-83
2021/05/22 06:20:56;;;;;;;;;;;12.50;91.30;;;;;;5043365;28;19913;-83
2021/05/22 06:23:21;;;;;;;;;;;12.50;91.60;;;;;;5056640;28;19913;-83
2021/05/22 06:25:47;;;;;;;;;;;12.50;91.80;;;;;;5040395;28;19972;-83
2021/05/22 06:28:12;;;;;;;;;;;12.40;92.10;;;;;;5033985;28;20267;-84
2021/05/22 06:30:37;;;;;;;;;;;12.40;92.50;;;;;;5039177;28;20009;-84
2021/05/22 06:33:03;;;;;;;;;;;12.40;92.90;;;;;;5015499;28;19917;-83
2021/05/22 06:35:29;;;;;;;;;;;12.30;93.10;;;;;;5043662;28;19980;-83
2021/05/22 06:37:54;;;;;;;;;;;12.30;93.30;;;;;;5035598;28;19921;-83
2021/05/22 06:40:20;;;;;;;;;;;12.30;93.80;;;;;;5047703;28;19917;-83
2021/05/22 06:42:45;;;;;;;;;;;12.20;94.20;;;;;;5051934;28;20561;-83
2021/05/22 06:45:14;;;;;;;;;;;12.20;94.60;;;;;;5044977;28;19917;-82
2021/05/22 06:47:40;;;;;;;;;;;12.20;95.00;;;;;;5041872;28;19920;-83
2021/05/22 06:50:06;;;;;;;;;;;12.20;95.20;;;;;;5030137;28;19913;-83
2021/05/22 06:52:31;;;;;;;;;;;12.20;95.60;;;;;;5020289;28;19979;-83
2021/05/22 06:54:57;;;;;;;;;;;12.20;95.90;;;;;;5051436;28;20082;-83
2021/05/22 06:57:22;;;;;;;;;;;12.20;96.20;;;;;;5043461;28;19920;-84
2021/05/22 06:59:48;;;;;;;;;;;12.20;96.60;;;;;;5054592;28;19958;-82
2021/05/22 07:02:13;;;;;;;;;;;12.20;97.00;;;;;;5039714;28;19952;-83
2021/05/22 07:04:39;;;;;;;;;;;12.20;97.50;;;;;;5037996;28;19967;-84
2021/05/22 07:07:05;;;;;;;;;;;12.10;97.90;;;;;;5044356;28;19913;-82
2021/05/22 07:09:31;;;;;;;;;;;12.20;98.30;;;;;;5056290;28;19909;-82
2021/05/22 07:11:57;;;;;;;;;;;12.20;98.60;;;;;;5037000;28;19917;-82
2021/05/22 07:14:22;;;;;;;;;;;12.30;98.90;;;;;;5038030;28;20392;-83
2021/05/22 07:16:48;;;;;;;;;;;12.40;99.20;;;;;;5037502;28;20425;-83
2021/05/22 07:19:13;;;;;;;;;;;12.50;99.10;;;;;;5031888;28;19920;-83
2021/05/22 07:21:39;;;;;;;;;;;12.50;99.30;;;;;;5026939;28;19996;-83
2021/05/22 07:24:04;;;;;;;;;;;12.50;99.50;;;;;;5036447;28;19913;-83
2021/05/22 07:26:30;;;;;;;;;;;12.50;99.90;;;;;;5043388;28;19917;-83
2021/05/22 07:28:56;;;;;;;;;;;12.40;99.90;;;;;;5044676;28;19918;-84
2021/05/22 07:31:21;;;;;;;;;;;12.30;99.90;;;;;;5053798;28;20384;-83
2021/05/22 07:33:50;;;;;;;;;;;12.10;99.90;;;;;;5056008;28;19928;-84
2021/05/22 07:36:15;;;;;;;;;;;12.10;99.90;;;;;;5046678;28;19925;-84
2021/05/22 07:38:41;;;;;;;;;;;12.10;99.90;;;;;;5037139;28;19913;-84
2021/05/22 07:41:07;;;;;;;;;;;12.10;99.90;;;;;;5052412;28;20030;-83
2021/05/22 07:43:33;;;;;;;;;;;12.10;99.90;;;;;;5042287;28;19995;-84
2021/05/22 07:45:58;;;;;;;;;;;12.10;99.90;;;;;;5041169;28;19920;-84
2021/05/22 07:48:24;;;;;;;;;;;12.10;99.90;;;;;;5020208;28;19913;-83
2021/05/22 07:50:52;;;;;;;;;;;12.20;99.90;;;;;;5040053;28;19992;-83
2021/05/22 07:53:18;;;;;;;;;;;12.30;99.90;;;;;;5034900;28;20292;-84
2021/05/22 07:55:44;;;;;;;;;;;12.40;99.90;;;;;;5040556;28;19920;-83
2021/05/22 07:58:09;;;;;;;;;;;12.50;99.90;;;;;;5044430;28;19920;-83
2021/05/22 08:00:35;;;;;;;;;;;12.60;99.90;;;;;;5061470;28;19909;-83
2021/05/22 08:03:00;;;;;;;;;;;12.80;99.90;;;;;;5037886;28;19913;-84
2021/05/22 08:05:25;;;;;;;;;;;12.90;99.90;;;;;;5044684;28;19909;-83
2021/05/22 08:07:51;;;;;;;;;;;13.10;99.90;;;;;;5040026;28;20373;-83
2021/05/22 08:10:18;;;;;;;;;;;13.20;99.90;;;;;;5055753;28;19916;-83
2021/05/22 08:12:43;;;;;;;;;;;13.20;99.90;;;;;;5047677;28;20384;-84
2021/05/22 08:15:09;;;;;;;;;;;13.30;99.90;;;;;;5039181;28;19917;-83
2021/05/22 08:17:35;;;;;;;;;;;13.30;99.90;;;;;;5028661;28;19913;-83
2021/05/22 08:20:01;;;;;;;;;;;13.30;99.90;;;;;;5014567;28;19920;-80
2021/05/22 08:22:28;;;;;;;;;;;13.20;99.90;;;;;;5027109;28;20336;-82
2021/05/22 08:24:53;;;;;;;;;;;13.30;99.90;;;;;;5035656;28;19936;-83
2021/05/22 08:27:21;;;;;;;;;;;13.30;99.90;;;;;;5032336;28;20377;-83
2021/05/22 08:29:46;;;;;;;;;;;13.40;99.90;;;;;;5037930;28;19913;-83
2021/05/22 08:32:14;;;;;;;;;;;13.40;99.90;;;;;;5021844;28;19920;-83
2021/05/22 08:34:40;;;;;;;;;;;13.40;99.90;;;;;;5038732;28;19913;-83
2021/05/22 08:37:11;;;;;;;;;;;13.40;99.90;;;;;;5039276;28;19913;-82
2021/05/22 08:39:37;;;;;;;;;;;13.30;99.90;;;;;;5036626;28;19913;-83
2021/05/22 08:42:02;;;;;;;;;;;13.30;99.90;;;;;;5036983;28;19920;-83
2021/05/22 08:44:28;;;;;;;;;;;13.30;99.90;;;;;;5017087;28;19921;-83
2021/05/22 08:46:54;;;;;;;;;;;13.20;99.90;;;;;;5035705;28;19971;-84
2021/05/22 08:49:19;;;;;;;;;;;13.10;99.90;;;;;;5035238;28;19917;-83
2021/05/22 08:51:45;;;;;;;;;;;13.00;99.90;;;;;;5021946;28;20293;-81
2021/05/22 08:54:10;;;;;;;;;;;13.10;99.90;;;;;;5038756;28;19920;-84
2021/05/22 08:56:36;;;;;;;;;;;13.10;99.90;;;;;;5035165;28;20377;-84
2021/05/22 08:59:01;;;;;;;;;;;13.20;99.90;;;;;;5029997;28;19913;-84
2021/05/22 09:01:27;;;;;;;;;;;13.20;99.90;;;;;;5035388;28;19917;-83
2021/05/22 09:03:56;;;;;;;;;;;13.30;99.90;;;;;;5037639;28;20279;-83
2021/05/22 09:06:22;;;;;;;;;;;13.40;99.90;;;;;;5022183;28;20340;-83
2021/05/22 09:09:01;;;;;;;;;;;13.40;99.90;;;;;;5039359;28;19920;-83
2021/05/22 09:11:26;;;;;;;;;;;13.40;99.90;;;;;;5040594;28;20308;-82
2021/05/22 09:13:52;;;;;;;;;;;13.40;99.90;;;;;;5038383;28;20122;-83
2021/05/22 09:16:18;;;;;;;;;;;13.40;99.90;;;;;;5035784;28;19983;-83
2021/05/22 09:18:46;;;;;;;;;;;13.40;99.90;;;;;;5036311;28;19920;-83
2021/05/22 09:21:12;;;;;;;;;;;13.30;99.90;;;;;;5037377;28;20003;-83
2021/05/22 09:23:40;;;;;;;;;;;13.20;99.90;;;;;;5042434;28;19919;-82
2021/05/22 09:26:06;;;;;;;;;;;13.20;99.90;;;;;;5039908;28;19920;-83
2021/05/22 09:28:33;;;;;;;;;;;13.20;99.90;;;;;;5037786;28;19920;-82
2021/05/22 09:30:59;;;;;;;;;;;13.20;99.90;;;;;;5034622;28;20000;-83
2021/05/22 09:33:32;;;;;;;;;;;13.20;99.90;;;;;;5033618;28;19920;-82
2021/05/22 09:35:59;;;;;;;;;;;13.10;99.90;;;;;;5029810;28;19921;-82
2021/05/22 09:38:37;;;;;;;;;;;13.10;99.90;;;;;;5030042;28;19918;-83
2021/05/22 09:41:16;;;;;;;;;;;13.00;99.90;;;;;;5032400;28;19913;-82
2021/05/22 09:43:41;;;;;;;;;;;13.00;99.90;;;;;;5032965;28;19919;-82
2021/05/22 09:46:10;;;;;;;;;;;13.00;99.90;;;;;;5028244;28;19956;-83
2021/05/22 09:48:37;;;;;;;;;;;13.00;99.90;;;;;;5033870;28;19917;-83
2021/05/22 09:51:03;;;;;;;;;;;13.10;99.90;;;;;;5034335;28;19913;-82
2021/05/22 09:53:30;;;;;;;;;;;13.10;99.90;;;;;;5038299;28;19921;-83
2021/05/22 09:56:14;;;;;;;;;;;13.20;99.90;;;;;;5037388;28;19913;-83
2021/05/22 09:58:50;;;;;;;;;;;13.30;99.90;;;;;;5037777;28;20009;-83
2021/05/22 10:01:20;;;;;;;;;;;13.40;99.90;;;;;;5019978;28;19962;-83
2021/05/22 10:03:46;;;;;;;;;;;13.50;99.90;;;;;;5027497;28;19917;-82
2021/05/22 10:06:12;;;;;;;;;;;13.60;99.90;;;;;;5040582;28;20067;-83
2021/05/22 10:08:38;;;;;;;;;;;13.80;99.90;;;;;;5033919;28;19913;-82
2021/05/22 10:11:04;;;;;;;;;;;13.80;99.90;;;;;;5034453;28;20592;-83
2021/05/22 10:13:30;;;;;;;;;;;13.90;99.90;;;;;;5035430;28;19919;-83
2021/05/22 10:15:56;;;;;;;;;;;13.90;99.90;;;;;;5034116;28;19925;-83
2021/05/22 10:18:25;;;;;;;;;;;13.90;99.90;;;;;;5035624;28;19985;-83
2021/05/22 10:20:52;;;;;;;;;;;14.00;99.90;;;;;;5027072;28;19909;-83
2021/05/22 10:23:18;;;;;;;;;;;14.10;99.90;;;;;;5036690;28;19913;-83
2021/05/22 10:25:48;;;;;;;;;;;14.30;99.90;;;;;;5024571;28;20381;-84
2021/05/22 10:28:14;;;;;;;;;;;14.40;99.90;;;;;;5029112;28;19917;-83
2021/05/22 10:30:40;;;;;;;;;;;14.60;99.90;;;;;;5039115;28;19913;-84
2021/05/22 10:33:06;;;;;;;;;;;14.70;99.90;;;;;;5038404;28;19920;-83
2021/05/22 10:35:43;;;;;;;;;;;14.80;99.90;;;;;;5034218;28;20003;-83
2021/05/22 10:38:09;;;;;;;;;;;14.90;99.90;;;;;;5027792;28;19921;-84
2021/05/22 10:40:45;;;;;;;;;;;15.10;99.90;;;;;;5040170;28;19920;-83
2021/05/22 10:43:10;;;;;;;;;;;15.30;99.90;;;;;;5029605;28;20489;-83
2021/05/22 10:45:38;;;;;;;;;;;15.40;99.90;;;;;;5007683;28;19952;-83
2021/05/22 10:48:05;;;;;;;;;;;15.40;99.90;;;;;;5046026;28;19913;-83
2021/05/22 10:50:34;;;;;;;;;;;15.40;99.90;;;;;;5038103;28;19921;-83
2021/05/22 10:53:19;;;;;;;;;;;15.30;99.90;;;;;;5050936;28;19959;-83
2021/05/22 10:55:45;;;;;;;;;;;15.20;99.90;;;;;;5034192;28;19917;-83
2021/05/22 10:58:11;;;;;;;;;;;15.10;99.90;;;;;;5038757;28;19955;-83
2021/05/22 11:00:37;;;;;;;;;;;15.10;99.90;;;;;;5030005;28;19935;-83
2021/05/22 11:03:05;;;;;;;;;;;15.10;99.90;;;;;;5028687;28;20401;-84
2021/05/22 11:05:36;;;;;;;;;;;15.10;99.90;;;;;;5032816;28;20293;-83
2021/05/22 11:08:21;;;;;;;;;;;15.00;99.90;;;;;;5033115;28;19920;-83
2021/05/22 11:10:49;;;;;;;;;;;15.00;99.90;;;;;;5020343;28;19921;-83
2021/05/22 11:13:20;;;;;;;;;;;14.80;99.90;;;;;;5040141;28;19939;-84
2021/05/22 11:15:55;;;;;;;;;;;14.70;99.90;;;;;;5040442;28;19971;-83
2021/05/22 11:18:27;;;;;;;;;;;14.60;99.90;;;;;;5034534;28;19913;-84
2021/05/22 11:21:08;;;;;;;;;;;14.60;99.90;;;;;;5040096;28;20285;-83
2021/05/22 11:23:52;;;;;;;;;;;14.50;99.90;;;;;;5038539;28;20008;-84
2021/05/22 11:26:38;;;;;;;;;;;14.50;99.90;;;;;;5045862;28;19975;-84
2021/05/22 11:29:03;;;;;;;;;;;14.50;99.90;;;;;;5021914;28;20012;-82
2021/05/22 11:31:32;;;;;;;;;;;14.50;99.90;;;;;;5022607;28;19956;-83
2021/05/22 11:34:16;;;;;;;;;;;14.60;99.90;;;;;;5036596;28;19916;-84
2021/05/22 11:36:42;;;;;;;;;;;14.70;99.90;;;;;;5016889;28;19924;-83
2021/05/22 11:39:27;;;;;;;;;;;14.80;99.90;;;;;;5037192;28;19960;-83
2021/05/22 11:41:52;;;;;;;;;;;14.90;99.90;;;;;;5021431;28;20023;-83
2021/05/22 11:44:20;;;;;;;;;;;15.10;99.90;;;;;;5037218;28;20277;-83
2021/05/22 11:46:55;;;;;;;;;;;15.30;99.90;;;;;;5034755;28;19917;-83
2021/05/22 11:49:31;;;;;;;;;;;15.50;99.90;;;;;;5035641;28;19920;-83
2021/05/22 11:51:56;;;;;;;;;;;15.60;99.90;;;;;;5035832;28;19924;-84
2021/05/22 11:54:31;;;;;;;;;;;15.70;99.90;;;;;;5038969;28;20361;-83
2021/05/22 11:56:57;;;;;;;;;;;15.70;99.90;;;;;;5027279;28;19918;-83
2021/05/22 11:59:22;;;;;;;;;;;15.60;99.90;;;;;;5038711;28;19967;-84
2021/05/22 12:01:48;;;;;;;;;;;15.50;99.90;;;;;;5038841;28;19941;-83
2021/05/22 12:04:14;;;;;;;;;;;15.40;99.90;;;;;;5032283;28;19913;-83
2021/05/22 12:06:41;;;;;;;;;;;15.30;99.90;;;;;;5037902;28;19909;-83
2021/05/22 12:09:16;;;;;;;;;;;15.20;99.90;;;;;;5040618;28;19913;-84
2021/05/22 12:12:02;;;;;;;;;;;15.10;99.90;;;;;;5034137;28;19963;-84
2021/05/22 12:14:37;;;;;;;;;;;15.10;99.90;;;;;;5037223;28;20381;-83
2021/05/22 12:17:03;;;;;;;;;;;15.20;99.90;;;;;;5022959;28;19913;-83
2021/05/22 12:19:38;;;;;;;;;;;15.10;99.90;;;;;;5029237;28;20409;-83
2021/05/22 12:22:04;;;;;;;;;;;15.00;99.90;;;;;;5027698;28;19914;-83
2021/05/22 12:24:32;;;;;;;;;;;14.90;99.90;;;;;;5026669;28;19920;-82
2021/05/22 12:26:58;;;;;;;;;;;15.00;99.90;;;;;;5034162;28;20293;-83
2021/05/22 12:29:27;;;;;;;;;;;15.10;99.90;;;;;;5034329;28;19936;-83
2021/05/22 12:31:55;;;;;;;;;;;15.30;99.90;;;;;;5021155;28;19913;-83
2021/05/22 12:34:29;;;;;;;;;;;15.30;99.90;;;;;;5019982;28;19913;-83
2021/05/22 12:36:55;;;;;;;;;;;15.50;99.90;;;;;;5038003;28;19913;-84
2021/05/22 12:39:21;;;;;;;;;;;15.60;99.90;;;;;;5020198;28;19952;-83
2021/05/22 12:41:46;;;;;;;;;;;15.80;99.90;;;;;;5036325;28;19917;-83
2021/05/22 12:44:21;;;;;;;;;;;16.10;99.90;;;;;;5037933;28;19995;-83
2021/05/22 12:46:57;;;;;;;;;;;16.50;99.90;;;;;;5034950;28;19917;-83
2021/05/22 12:49:22;;;;;;;;;;;16.90;99.90;;;;;;5026488;28;19909;-82
2021/05/22 12:52:00;;;;;;;;;;;17.00;99.90;;;;;;5040283;28;20417;-83
2021/05/22 12:54:31;;;;;;;;;;;17.40;99.90;;;;;;5037823;28;20015;-83
2021/05/22 12:56:57;;;;;;;;;;;17.80;99.90;;;;;;5029026;28;19971;-84
2021/05/22 12:59:23;;;;;;;;;;;18.00;99.90;;;;;;5023548;28;19913;-84
2021/05/22 13:02:08;;;;;;;;;;;18.10;99.90;;;;;;5038226;28;20466;-84
2021/05/22 13:04:34;;;;;;;;;;;18.40;99.90;;;;;;5037316;28;19920;-84
2021/05/22 13:06:59;;;;;;;;;;;18.90;99.90;;;;;;5033747;28;19913;-83
2021/05/22 13:09:25;;;;;;;;;;;19.20;99.90;;;;;;5037913;28;19944;-83
2021/05/22 13:11:56;;;;;;;;;;;19.30;99.90;;;;;;5029668;28;19913;-83
2021/05/22 13:14:22;;;;;;;;;;;19.30;99.90;;;;;;5029980;28;20025;-83
2021/05/22 13:16:54;;;;;;;;;;;19.10;99.90;;;;;;5034127;28;19914;-83
2021/05/22 13:19:38;;;;;;;;;;;18.70;99.90;;;;;;5008838;28;20385;-83
2021/05/22 13:22:20;;;;;;;;;;;18.10;99.90;;;;;;5033126;28;19960;-84
2021/05/22 13:25:03;;;;;;;;;;;17.70;99.90;;;;;;5041492;28;20035;-85
2021/05/22 13:27:29;;;;;;;;;;;17.40;99.90;;;;;;5047112;28;20005;-85
2021/05/22 13:29:55;;;;;;;;;;;17.10;99.90;;;;;;5074812;22;19936;-80
2021/05/22 13:32:24;;;;;;;;;;;16.70;99.90;;;;;;5079804;28;19919;-80
2021/05/22 13:34:49;;;;;;;;;;;16.50;99.90;;;;;;5072764;28;20004;-80
2021/05/22 13:37:17;;;;;;;;;;;16.40;99.90;;;;;;5060303;28;19967;-80
2021/05/22 13:39:43;;;;;;;;;;;16.30;99.90;;;;;;5049547;28;19940;-80
2021/05/22 13:42:09;;;;;;;;;;;16.20;99.90;;;;;;5048973;28;19921;-79
2021/05/22 13:44:34;;;;;;;;;;;16.00;99.90;;;;;;5040857;28;19916;-80
2021/05/22 13:47:00;;;;;;;;;;;15.70;99.90;;;;;;5047064;28;19913;-80
2021/05/22 13:49:28;;;;;;;;;;;15.40;99.90;;;;;;5042767;28;19917;-80
2021/05/22 13:51:56;;;;;;;;;;;15.30;99.90;;;;;;5058386;28;20007;-80
2021/05/22 13:54:22;;;;;;;;;;;15.10;99.90;;;;;;5053185;28;20398;-79
2021/05/22 13:56:50;;;;;;;;;;;15.10;99.90;;;;;;5054859;28;19916;-79
2021/05/22 13:59:15;;;;;;;;;;;15.40;99.90;;;;;;5063254;28;20396;-79
2021/05/22 14:01:43;;;;;;;;;;;15.80;99.90;;;;;;5059261;28;19920;-79
2021/05/22 14:04:11;;;;;;;;;;;16.20;99.90;;;;;;5057267;28;20315;-79
2021/05/22 14:06:36;;;;;;;;;;;16.40;99.90;;;;;;5059620;28;19952;-79
2021/05/22 14:09:03;;;;;;;;;;;16.60;99.90;;;;;;5058278;28;19967;-78
2021/05/22 14:11:28;;;;;;;;;;;16.90;99.90;;;;;;5056114;28;19944;-80
2021/05/22 14:13:54;;;;;;;;;;;17.30;99.90;;;;;;5075211;28;19909;-79
2021/05/22 14:16:20;;;;;;;;;;;17.80;99.90;;;;;;5077957;28;19920;-80
2021/05/22 14:18:48;;;;;;;;;;;18.20;99.90;;;;;;5061716;28;19913;-79